Hauptseite
METAR-TAF:

METAR-TAF

Flughäfen :

Illizi, Algerien

Breite: 26-30N, Länge: 008-25E, Höhe: 558 m

Beobachtung

Neuester Wetterbericht von vor 29 Minuten, um 06:00 UTC
Wind 4 kt aus Ost/Südost
Temperatur 31°C
Luftfeuchtigkeit 19%
Luftdruck 1013 hPa
Sichtweite 10 km oder mehr
keine Wolken unter 1500 m und keine Kumulonimbus oder Gewitterwolken

METAR: DAAP 130600Z 12004KT CAVOK 31/05 Q1013

Zeit: 07:29 (06:29 UTC)

Prognose

Neuester Wetterbericht von vor 1 Stunde und 29 Minuten, um 05:00 UTC
Gültige Prognose vom 13 um 06 UTC bis 13 um 15 UTC
Wind 8 kt aus Ost/Südost
Sichtweite 10 km oder mehr
keine Wolken unter 1500 m und keine Kumulonimbus oder Gewitterwolken

TAF: DAAP 130500Z 1306/1315 12008KT CAVOK

Wetterbeobachtungen und Prognosen von mehr als 4000 Flughäfen (METAR und TAF Bericht).

Die verfügbaren Stationen werden durch gelbe und rote Markierungen auf der Karte dargestellt.

Führen Sie die Maus auf sie, um den Namen der Station zu sehen.

Darauf klicken, um die Beobachtung von Wetterbeobachtungen und Prognosen zu sehen.

Um die Karte zu ändern : klicken Sie auf den grünen Tasten mit einem schwarzen Kreuz Zum Vergrößern, auf den grünen Button mit einem Gedankenstrich zu verkleinern, oder auf die grünen Pfeile für benachbarte Karten.


METAR-TAF: